sensor_id;sensor_type;location;lat;lon;timestamp;temperature;humidity
33803;DHT22;20110;53.120;5.786;2022-12-07T00:01:09;1.30;99.90
33803;DHT22;20110;53.120;5.786;2022-12-07T00:03:37;1.10;99.90
33803;DHT22;20110;53.120;5.786;2022-12-07T00:06:06;0.90;99.90
33803;DHT22;20110;53.120;5.786;2022-12-07T00:08:33;0.80;99.90
33803;DHT22;20110;53.120;5.786;2022-12-07T00:11:09;0.70;99.90
33803;DHT22;20110;53.120;5.786;2022-12-07T00:13:38;0.50;99.90
33803;DHT22;20110;53.120;5.786;2022-12-07T00:16:18;0.40;99.90
33803;DHT22;20110;53.120;5.786;2022-12-07T00:18:45;0.20;99.90
33803;DHT22;20110;53.120;5.786;2022-12-07T00:21:14;0.20;99.90
33803;DHT22;20110;53.120;5.786;2022-12-07T00:23:43;0.20;99.90
33803;DHT22;20110;53.120;5.786;2022-12-07T00:26:18;0.10;99.90
33803;DHT22;20110;53.120;5.786;2022-12-07T00:28:50;0.20;99.90
33803;DHT22;20110;53.120;5.786;2022-12-07T00:31:20;0.20;99.90
33803;DHT22;20110;53.120;5.786;2022-12-07T00:33:47;0.40;99.90
33803;DHT22;20110;53.120;5.786;2022-12-07T00:36:16;0.50;99.90
33803;DHT22;20110;53.120;5.786;2022-12-07T00:38:44;0.90;99.90
33803;DHT22;20110;53.120;5.786;2022-12-07T00:41:15;1.50;99.90
33803;DHT22;20110;53.120;5.786;2022-12-07T00:43:44;1.80;99.90
33803;DHT22;20110;53.120;5.786;2022-12-07T00:46:11;2.00;99.90
33803;DHT22;20110;53.120;5.786;2022-12-07T00:48:39;2.10;99.90
33803;DHT22;20110;53.120;5.786;2022-12-07T00:51:06;2.20;99.90
33803;DHT22;20110;53.120;5.786;2022-12-07T00:53:36;2.30;99.90
33803;DHT22;20110;53.120;5.786;2022-12-07T00:56:11;2.10;99.90
33803;DHT22;20110;53.120;5.786;2022-12-07T00:58:38;1.40;99.90
33803;DHT22;20110;53.120;5.786;2022-12-07T01:01:05;1.10;99.90
33803;DHT22;20110;53.120;5.786;2022-12-07T01:03:32;0.80;99.90
33803;DHT22;20110;53.120;5.786;2022-12-07T01:05:58;0.60;99.90
33803;DHT22;20110;53.120;5.786;2022-12-07T01:08:26;0.60;99.90
33803;DHT22;20110;53.120;5.786;2022-12-07T01:11:04;0.40;99.90
33803;DHT22;20110;53.120;5.786;2022-12-07T01:13:33;0.60;99.90
33803;DHT22;20110;53.120;5.786;2022-12-07T01:16:01;0.60;99.90
33803;DHT22;20110;53.120;5.786;2022-12-07T01:18:31;0.60;99.90
33803;DHT22;20110;53.120;5.786;2022-12-07T01:21:10;0.90;99.90
33803;DHT22;20110;53.120;5.786;2022-12-07T01:23:38;0.90;99.90
33803;DHT22;20110;53.120;5.786;2022-12-07T01:26:07;0.90;99.90
33803;DHT22;20110;53.120;5.786;2022-12-07T01:28:35;1.30;99.90
33803;DHT22;20110;53.120;5.786;2022-12-07T01:31:07;1.40;99.90
33803;DHT22;20110;53.120;5.786;2022-12-07T01:33:41;1.20;99.90
33803;DHT22;20110;53.120;5.786;2022-12-07T01:38:46;1.00;99.90
33803;DHT22;20110;53.120;5.786;2022-12-07T01:41:14;1.00;99.90
33803;DHT22;20110;53.120;5.786;2022-12-07T01:44:13;1.00;99.90
33803;DHT22;20110;53.120;5.786;2022-12-07T01:46:56;1.50;99.90
33803;DHT22;20110;53.120;5.786;2022-12-07T01:52:15;1.90;99.90
33803;DHT22;20110;53.120;5.786;2022-12-07T01:54:47;1.90;99.90
33803;DHT22;20110;53.120;5.786;2022-12-07T01:57:18;2.20;99.90
33803;DHT22;20110;53.120;5.786;2022-12-07T01:59:49;2.40;99.90
33803;DHT22;20110;53.120;5.786;2022-12-07T02:02:27;2.30;99.90
33803;DHT22;20110;53.120;5.786;2022-12-07T02:04:59;2.20;99.90
33803;DHT22;20110;53.120;5.786;2022-12-07T02:07:28;2.00;99.90
33803;DHT22;20110;53.120;5.786;2022-12-07T02:09:55;1.90;99.90
33803;DHT22;20110;53.120;5.786;2022-12-07T02:12:21;2.00;99.90
33803;DHT22;20110;53.120;5.786;2022-12-07T02:14:50;1.60;99.90
33803;DHT22;20110;53.120;5.786;2022-12-07T02:17:37;1.50;99.90
33803;DHT22;20110;53.120;5.786;2022-12-07T02:20:18;1.40;99.90
33803;DHT22;20110;53.120;5.786;2022-12-07T02:26:37;1.20;99.90
33803;DHT22;20110;53.120;5.786;2022-12-07T02:29:27;1.40;99.90
33803;DHT22;20110;53.120;5.786;2022-12-07T02:32:24;1.70;99.90
33803;DHT22;20110;53.120;5.786;2022-12-07T02:35:04;1.70;99.90
33803;DHT22;20110;53.120;5.786;2022-12-07T02:37:39;1.80;99.90
33803;DHT22;20110;53.120;5.786;2022-12-07T02:40:19;1.90;99.90
33803;DHT22;20110;53.120;5.786;2022-12-07T02:42:55;2.00;99.90
33803;DHT22;20110;53.120;5.786;2022-12-07T02:45:27;1.80;99.90
33803;DHT22;20110;53.120;5.786;2022-12-07T02:47:58;1.80;99.90
33803;DHT22;20110;53.120;5.786;2022-12-07T02:50:26;1.90;99.90
33803;DHT22;20110;53.120;5.786;2022-12-07T02:52:52;1.90;99.90
33803;DHT22;20110;53.120;5.786;2022-12-07T02:55:21;1.80;99.90
33803;DHT22;20110;53.120;5.786;2022-12-07T02:58:06;1.70;99.90
33803;DHT22;20110;53.120;5.786;2022-12-07T03:00:47;1.60;99.90
33803;DHT22;20110;53.120;5.786;2022-12-07T03:03:23;1.40;99.90
33803;DHT22;20110;53.120;5.786;2022-12-07T03:06:09;1.70;99.90
33803;DHT22;20110;53.120;5.786;2022-12-07T03:09:00;1.90;99.90
33803;DHT22;20110;53.120;5.786;2022-12-07T03:11:48;1.90;99.90
33803;DHT22;20110;53.120;5.786;2022-12-07T03:14:31;1.70;99.90
33803;DHT22;20110;53.120;5.786;2022-12-07T03:17:12;1.80;99.90
33803;DHT22;20110;53.120;5.786;2022-12-07T03:19:43;1.60;99.90
33803;DHT22;20110;53.120;5.786;2022-12-07T03:22:12;1.50;99.90
33803;DHT22;20110;53.120;5.786;2022-12-07T03:24:43;1.50;99.90
33803;DHT22;20110;53.120;5.786;2022-12-07T03:30:14;1.40;99.90
33803;DHT22;20110;53.120;5.786;2022-12-07T03:32:48;1.50;99.90
33803;DHT22;20110;53.120;5.786;2022-12-07T03:35:31;1.40;99.90
33803;DHT22;20110;53.120;5.786;2022-12-07T03:40:54;1.10;99.90
33803;DHT22;20110;53.120;5.786;2022-12-07T03:43:30;1.00;99.90
33803;DHT22;20110;53.120;5.786;2022-12-07T03:51:51;0.80;99.90
33803;DHT22;20110;53.120;5.786;2022-12-07T03:55:02;0.80;99.90
33803;DHT22;20110;53.120;5.786;2022-12-07T03:57:34;1.20;99.90
33803;DHT22;20110;53.120;5.786;2022-12-07T04:00:05;1.50;99.90
33803;DHT22;20110;53.120;5.786;2022-12-07T04:02:32;1.70;99.90
33803;DHT22;20110;53.120;5.786;2022-12-07T04:04:58;1.80;99.90
33803;DHT22;20110;53.120;5.786;2022-12-07T04:07:25;1.80;99.90
33803;DHT22;20110;53.120;5.786;2022-12-07T04:09:51;1.80;99.90
33803;DHT22;20110;53.120;5.786;2022-12-07T04:12:16;1.70;99.90
33803;DHT22;20110;53.120;5.786;2022-12-07T04:14:42;1.80;99.90
33803;DHT22;20110;53.120;5.786;2022-12-07T04:17:08;1.90;99.90
33803;DHT22;20110;53.120;5.786;2022-12-07T04:19:34;1.50;99.90
33803;DHT22;20110;53.120;5.786;2022-12-07T04:22:01;1.40;99.90
33803;DHT22;20110;53.120;5.786;2022-12-07T04:24:28;1.30;99.90
33803;DHT22;20110;53.120;5.786;2022-12-07T04:26:55;1.20;99.90
33803;DHT22;20110;53.120;5.786;2022-12-07T04:29:21;1.00;99.90
33803;DHT22;20110;53.120;5.786;2022-12-07T04:31:47;1.00;99.90
33803;DHT22;20110;53.120;5.786;2022-12-07T04:34:14;1.10;99.90
33803;DHT22;20110;53.120;5.786;2022-12-07T04:36:41;1.30;99.90
33803;DHT22;20110;53.120;5.786;2022-12-07T04:41:48;1.30;99.90
33803;DHT22;20110;53.120;5.786;2022-12-07T04:44:15;1.30;99.90
33803;DHT22;20110;53.120;5.786;2022-12-07T04:46:42;1.30;99.90
33803;DHT22;20110;53.120;5.786;2022-12-07T04:49:09;1.20;99.90
33803;DHT22;20110;53.120;5.786;2022-12-07T04:51:36;0.70;99.90
33803;DHT22;20110;53.120;5.786;2022-12-07T04:54:02;0.50;99.90
33803;DHT22;20110;53.120;5.786;2022-12-07T04:56:28;0.40;99.90
33803;DHT22;20110;53.120;5.786;2022-12-07T04:58:54;0.30;99.90
33803;DHT22;20110;53.120;5.786;2022-12-07T05:01:21;0.20;99.90
33803;DHT22;20110;53.120;5.786;2022-12-07T05:03:48;0.40;99.90
33803;DHT22;20110;53.120;5.786;2022-12-07T05:06:15;0.90;99.90
33803;DHT22;20110;53.120;5.786;2022-12-07T05:08:41;1.30;99.90
33803;DHT22;20110;53.120;5.786;2022-12-07T05:11:08;1.50;99.90
33803;DHT22;20110;53.120;5.786;2022-12-07T05:13:35;1.70;99.90
33803;DHT22;20110;53.120;5.786;2022-12-07T05:16:02;1.70;99.90
33803;DHT22;20110;53.120;5.786;2022-12-07T05:18:28;1.70;99.90
33803;DHT22;20110;53.120;5.786;2022-12-07T05:20:54;1.50;99.90
33803;DHT22;20110;53.120;5.786;2022-12-07T05:23:20;1.40;99.90
33803;DHT22;20110;53.120;5.786;2022-12-07T05:25:46;1.50;99.90
33803;DHT22;20110;53.120;5.786;2022-12-07T05:28:12;1.40;99.90
33803;DHT22;20110;53.120;5.786;2022-12-07T05:30:38;1.70;99.90
33803;DHT22;20110;53.120;5.786;2022-12-07T05:33:04;1.90;99.90
33803;DHT22;20110;53.120;5.786;2022-12-07T05:35:30;1.80;99.90
33803;DHT22;20110;53.120;5.786;2022-12-07T05:37:56;1.60;99.90
33803;DHT22;20110;53.120;5.786;2022-12-07T05:40:22;1.20;99.90
33803;DHT22;20110;53.120;5.786;2022-12-07T05:42:48;1.10;99.90
33803;DHT22;20110;53.120;5.786;2022-12-07T05:45:14;0.90;99.90
33803;DHT22;20110;53.120;5.786;2022-12-07T05:47:40;0.70;99.90
33803;DHT22;20110;53.120;5.786;2022-12-07T05:50:06;0.70;99.90
33803;DHT22;20110;53.120;5.786;2022-12-07T05:52:32;0.60;99.90
33803;DHT22;20110;53.120;5.786;2022-12-07T05:54:58;0.60;99.90
33803;DHT22;20110;53.120;5.786;2022-12-07T05:57:24;0.50;99.90
33803;DHT22;20110;53.120;5.786;2022-12-07T05:59:50;0.60;99.90
33803;DHT22;20110;53.120;5.786;2022-12-07T06:02:16;0.60;99.90
33803;DHT22;20110;53.120;5.786;2022-12-07T06:04:45;0.40;99.90
33803;DHT22;20110;53.120;5.786;2022-12-07T06:07:13;0.70;99.90
33803;DHT22;20110;53.120;5.786;2022-12-07T06:09:40;0.90;99.90
33803;DHT22;20110;53.120;5.786;2022-12-07T06:12:08;0.70;99.90
33803;DHT22;20110;53.120;5.786;2022-12-07T06:14:54;0.60;99.90
33803;DHT22;20110;53.120;5.786;2022-12-07T06:17:20;0.50;99.90
33803;DHT22;20110;53.120;5.786;2022-12-07T06:19:45;0.00;99.90
33803;DHT22;20110;53.120;5.786;2022-12-07T06:22:11;-0.30;99.90
33803;DHT22;20110;53.120;5.786;2022-12-07T06:24:38;-0.30;99.90
33803;DHT22;20110;53.120;5.786;2022-12-07T06:27:05;-0.20;99.90
33803;DHT22;20110;53.120;5.786;2022-12-07T06:29:31;-0.30;99.90
33803;DHT22;20110;53.120;5.786;2022-12-07T06:31:57;-0.10;99.90
33803;DHT22;20110;53.120;5.786;2022-12-07T06:34:23;-0.10;99.90
33803;DHT22;20110;53.120;5.786;2022-12-07T06:36:52;-0.10;99.90
33803;DHT22;20110;53.120;5.786;2022-12-07T06:39:22;-0.30;99.90
33803;DHT22;20110;53.120;5.786;2022-12-07T06:41:51;-0.30;99.90
33803;DHT22;20110;53.120;5.786;2022-12-07T06:44:18;-0.40;99.90
33803;DHT22;20110;53.120;5.786;2022-12-07T06:46:44;-0.50;99.90
33803;DHT22;20110;53.120;5.786;2022-12-07T06:49:10;-0.60;99.90
33803;DHT22;20110;53.120;5.786;2022-12-07T06:51:36;-0.60;99.90
33803;DHT22;20110;53.120;5.786;2022-12-07T06:54:09;-0.60;99.90
33803;DHT22;20110;53.120;5.786;2022-12-07T06:56:37;-0.40;99.90
33803;DHT22;20110;53.120;5.786;2022-12-07T06:59:05;-0.50;99.90
33803;DHT22;20110;53.120;5.786;2022-12-07T07:01:32;-0.50;99.90
33803;DHT22;20110;53.120;5.786;2022-12-07T07:04:00;-0.30;99.90
33803;DHT22;20110;53.120;5.786;2022-12-07T07:06:26;-0.60;99.90
33803;DHT22;20110;53.120;5.786;2022-12-07T07:08:52;-0.60;99.90
33803;DHT22;20110;53.120;5.786;2022-12-07T07:11:19;-0.50;99.90
33803;DHT22;20110;53.120;5.786;2022-12-07T07:13:45;-0.60;99.90
33803;DHT22;20110;53.120;5.786;2022-12-07T07:16:11;-0.50;99.90
33803;DHT22;20110;53.120;5.786;2022-12-07T07:18:37;-0.30;99.90
33803;DHT22;20110;53.120;5.786;2022-12-07T07:21:03;0.00;99.90
33803;DHT22;20110;53.120;5.786;2022-12-07T07:23:30;0.30;99.90
33803;DHT22;20110;53.120;5.786;2022-12-07T07:25:55;0.70;99.90
33803;DHT22;20110;53.120;5.786;2022-12-07T07:28:21;0.70;99.90
33803;DHT22;20110;53.120;5.786;2022-12-07T07:30:47;0.50;99.90
33803;DHT22;20110;53.120;5.786;2022-12-07T07:33:13;0.50;99.90
33803;DHT22;20110;53.120;5.786;2022-12-07T07:35:39;0.40;99.90
33803;DHT22;20110;53.120;5.786;2022-12-07T07:38:05;0.30;99.90
33803;DHT22;20110;53.120;5.786;2022-12-07T07:40:32;-0.10;99.90
33803;DHT22;20110;53.120;5.786;2022-12-07T07:42:58;-0.40;99.90
33803;DHT22;20110;53.120;5.786;2022-12-07T07:45:25;-0.50;99.90
33803;DHT22;20110;53.120;5.786;2022-12-07T07:47:52;-0.60;99.90
33803;DHT22;20110;53.120;5.786;2022-12-07T07:50:18;-0.70;99.90
33803;DHT22;20110;53.120;5.786;2022-12-07T07:52:45;-0.30;99.90
33803;DHT22;20110;53.120;5.786;2022-12-07T07:55:11;0.10;99.90
33803;DHT22;20110;53.120;5.786;2022-12-07T07:57:38;0.30;99.90
33803;DHT22;20110;53.120;5.786;2022-12-07T08:00:10;0.30;99.90
33803;DHT22;20110;53.120;5.786;2022-12-07T08:02:37;0.40;99.90
33803;DHT22;20110;53.120;5.786;2022-12-07T08:05:04;-0.10;99.90
33803;DHT22;20110;53.120;5.786;2022-12-07T08:07:31;-0.40;99.90
33803;DHT22;20110;53.120;5.786;2022-12-07T08:09:57;-0.70;99.90
33803;DHT22;20110;53.120;5.786;2022-12-07T08:12:23;-1.00;99.90
33803;DHT22;20110;53.120;5.786;2022-12-07T08:14:48;-1.10;99.90
33803;DHT22;20110;53.120;5.786;2022-12-07T08:17:14;-1.00;99.90
33803;DHT22;20110;53.120;5.786;2022-12-07T08:19:40;-1.00;99.90
33803;DHT22;20110;53.120;5.786;2022-12-07T08:22:06;-1.00;99.90
33803;DHT22;20110;53.120;5.786;2022-12-07T08:24:35;-0.10;99.90
33803;DHT22;20110;53.120;5.786;2022-12-07T08:27:02;0.70;99.90
33803;DHT22;20110;53.120;5.786;2022-12-07T08:29:28;1.40;99.90
33803;DHT22;20110;53.120;5.786;2022-12-07T08:31:54;1.90;99.90
33803;DHT22;20110;53.120;5.786;2022-12-07T08:34:21;1.90;99.90
33803;DHT22;20110;53.120;5.786;2022-12-07T08:36:46;2.00;99.90
33803;DHT22;20110;53.120;5.786;2022-12-07T08:39:12;1.70;99.90
33803;DHT22;20110;53.120;5.786;2022-12-07T08:41:38;1.40;99.90
33803;DHT22;20110;53.120;5.786;2022-12-07T08:44:04;1.40;99.90
33803;DHT22;20110;53.120;5.786;2022-12-07T08:49:20;1.30;99.90
33803;DHT22;20110;53.120;5.786;2022-12-07T08:51:50;1.30;99.90
33803;DHT22;20110;53.120;5.786;2022-12-07T08:54:17;1.50;99.90
33803;DHT22;20110;53.120;5.786;2022-12-07T08:56:46;1.30;99.90
33803;DHT22;20110;53.120;5.786;2022-12-07T08:59:15;1.20;99.90
33803;DHT22;20110;53.120;5.786;2022-12-07T09:01:43;1.40;99.90
33803;DHT22;20110;53.120;5.786;2022-12-07T09:04:09;1.50;99.90
33803;DHT22;20110;53.120;5.786;2022-12-07T09:06:35;1.40;99.90
33803;DHT22;20110;53.120;5.786;2022-12-07T09:09:01;1.60;99.90
33803;DHT22;20110;53.120;5.786;2022-12-07T09:11:28;1.70;99.90
33803;DHT22;20110;53.120;5.786;2022-12-07T09:13:54;1.50;99.90
33803;DHT22;20110;53.120;5.786;2022-12-07T09:16:20;1.60;99.90
33803;DHT22;20110;53.120;5.786;2022-12-07T09:18:46;1.40;99.90
33803;DHT22;20110;53.120;5.786;2022-12-07T09:21:12;1.30;99.90
33803;DHT22;20110;53.120;5.786;2022-12-07T09:23:37;1.20;99.90
33803;DHT22;20110;53.120;5.786;2022-12-07T09:26:04;1.10;99.90
33803;DHT22;20110;53.120;5.786;2022-12-07T09:28:31;1.20;99.90
33803;DHT22;20110;53.120;5.786;2022-12-07T09:30:57;1.40;99.90
33803;DHT22;20110;53.120;5.786;2022-12-07T09:33:22;1.50;99.90
33803;DHT22;20110;53.120;5.786;2022-12-07T09:35:50;1.50;99.90
33803;DHT22;20110;53.120;5.786;2022-12-07T09:38:18;1.60;99.90
33803;DHT22;20110;53.120;5.786;2022-12-07T09:40:44;1.40;99.90
33803;DHT22;20110;53.120;5.786;2022-12-07T09:43:18;1.30;99.90
33803;DHT22;20110;53.120;5.786;2022-12-07T09:45:54;1.30;99.90
33803;DHT22;20110;53.120;5.786;2022-12-07T09:48:31;1.10;99.90
33803;DHT22;20110;53.120;5.786;2022-12-07T09:51:02;1.00;99.90
33803;DHT22;20110;53.120;5.786;2022-12-07T09:53:39;1.10;99.90
33803;DHT22;20110;53.120;5.786;2022-12-07T09:56:06;1.20;99.90
33803;DHT22;20110;53.120;5.786;2022-12-07T09:58:38;1.00;99.90
33803;DHT22;20110;53.120;5.786;2022-12-07T10:01:14;1.20;99.90
33803;DHT22;20110;53.120;5.786;2022-12-07T10:04:13;1.40;99.90
33803;DHT22;20110;53.120;5.786;2022-12-07T10:06:42;1.40;99.90
33803;DHT22;20110;53.120;5.786;2022-12-07T10:09:12;2.00;99.90
33803;DHT22;20110;53.120;5.786;2022-12-07T10:14:35;3.00;99.90
33803;DHT22;20110;53.120;5.786;2022-12-07T10:17:02;3.30;99.90
33803;DHT22;20110;53.120;5.786;2022-12-07T10:20:14;3.60;99.90
33803;DHT22;20110;53.120;5.786;2022-12-07T10:23:00;4.00;99.90
33803;DHT22;20110;53.120;5.786;2022-12-07T10:25:36;4.10;99.90
33803;DHT22;20110;53.120;5.786;2022-12-07T10:28:16;4.40;99.90
33803;DHT22;20110;53.120;5.786;2022-12-07T10:30:48;4.50;99.90
33803;DHT22;20110;53.120;5.786;2022-12-07T10:33:28;4.50;99.90
33803;DHT22;20110;53.120;5.786;2022-12-07T10:35:57;4.50;99.90
33803;DHT22;20110;53.120;5.786;2022-12-07T10:38:26;4.40;99.90
33803;DHT22;20110;53.120;5.786;2022-12-07T10:41:08;4.40;99.90
33803;DHT22;20110;53.120;5.786;2022-12-07T10:43:34;4.40;99.90
33803;DHT22;20110;53.120;5.786;2022-12-07T11:06:41;3.70;99.90
33803;DHT22;20110;53.120;5.786;2022-12-07T11:12:52;3.70;99.90
33803;DHT22;20110;53.120;5.786;2022-12-07T11:15:42;3.60;99.90
33803;DHT22;20110;53.120;5.786;2022-12-07T11:18:39;3.50;99.90
33803;DHT22;20110;53.120;5.786;2022-12-07T11:21:12;3.40;99.90
33803;DHT22;20110;53.120;5.786;2022-12-07T11:35:08;4.20;99.90
33803;DHT22;20110;53.120;5.786;2022-12-07T11:37:59;4.10;99.90
33803;DHT22;20110;53.120;5.786;2022-12-07T11:40:36;4.20;99.90
33803;DHT22;20110;53.120;5.786;2022-12-07T11:43:28;4.40;99.90
33803;DHT22;20110;53.120;5.786;2022-12-07T11:46:04;4.50;99.90
33803;DHT22;20110;53.120;5.786;2022-12-07T11:48:50;4.60;99.90
33803;DHT22;20110;53.120;5.786;2022-12-07T11:51:40;4.60;99.90
33803;DHT22;20110;53.120;5.786;2022-12-07T11:54:16;4.60;99.90
33803;DHT22;20110;53.120;5.786;2022-12-07T11:57:07;4.60;99.90
33803;DHT22;20110;53.120;5.786;2022-12-07T12:00:00;4.60;99.90
33803;DHT22;20110;53.120;5.786;2022-12-07T12:02:41;4.50;99.90
33803;DHT22;20110;53.120;5.786;2022-12-07T12:05:18;4.40;99.90
33803;DHT22;20110;53.120;5.786;2022-12-07T12:22:04;4.00;99.90
33803;DHT22;20110;53.120;5.786;2022-12-07T12:24:53;3.90;99.90
33803;DHT22;20110;53.120;5.786;2022-12-07T12:27:27;3.90;99.90
33803;DHT22;20110;53.120;5.786;2022-12-07T12:29:59;3.90;99.90
33803;DHT22;20110;53.120;5.786;2022-12-07T12:32:46;3.90;99.90
33803;DHT22;20110;53.120;5.786;2022-12-07T12:35:35;4.00;99.90
33803;DHT22;20110;53.120;5.786;2022-12-07T12:38:27;4.10;99.90
33803;DHT22;20110;53.120;5.786;2022-12-07T12:40:57;4.10;99.90
33803;DHT22;20110;53.120;5.786;2022-12-07T12:43:51;4.10;99.90
33803;DHT22;20110;53.120;5.786;2022-12-07T12:51:49;4.30;99.90
33803;DHT22;20110;53.120;5.786;2022-12-07T12:54:25;4.40;99.90
33803;DHT22;20110;53.120;5.786;2022-12-07T12:59:42;4.30;99.90
33803;DHT22;20110;53.120;5.786;2022-12-07T13:02:25;4.40;99.90
33803;DHT22;20110;53.120;5.786;2022-12-07T13:29:14;3.40;99.90
33803;DHT22;20110;53.120;5.786;2022-12-07T13:34:36;3.50;99.90
33803;DHT22;20110;53.120;5.786;2022-12-07T13:37:15;3.60;99.90
33803;DHT22;20110;53.120;5.786;2022-12-07T13:39:55;3.50;99.90
33803;DHT22;20110;53.120;5.786;2022-12-07T13:42:31;3.50;99.90
33803;DHT22;20110;53.120;5.786;2022-12-07T13:45:00;3.50;99.90
33803;DHT22;20110;53.120;5.786;2022-12-07T13:47:53;3.50;99.90
33803;DHT22;20110;53.120;5.786;2022-12-07T13:50:27;3.40;99.90
33803;DHT22;20110;53.120;5.786;2022-12-07T13:53:01;3.10;99.90
33803;DHT22;20110;53.120;5.786;2022-12-07T13:55:35;2.80;99.90
33803;DHT22;20110;53.120;5.786;2022-12-07T13:58:01;2.70;99.90
33803;DHT22;20110;53.120;5.786;2022-12-07T14:00:28;2.60;99.90
33803;DHT22;20110;53.120;5.786;2022-12-07T14:02:56;2.60;99.90
33803;DHT22;20110;53.120;5.786;2022-12-07T14:05:33;2.60;99.90
33803;DHT22;20110;53.120;5.786;2022-12-07T14:08:04;2.60;99.90
33803;DHT22;20110;53.120;5.786;2022-12-07T14:10:55;2.50;99.90
33803;DHT22;20110;53.120;5.786;2022-12-07T14:13:36;2.40;99.90
33803;DHT22;20110;53.120;5.786;2022-12-07T14:16:26;2.40;99.90
33803;DHT22;20110;53.120;5.786;2022-12-07T14:19:03;2.30;99.90
33803;DHT22;20110;53.120;5.786;2022-12-07T14:21:32;2.20;99.90
33803;DHT22;20110;53.120;5.786;2022-12-07T14:26:37;2.10;99.90
33803;DHT22;20110;53.120;5.786;2022-12-07T14:31:59;1.90;99.90
33803;DHT22;20110;53.120;5.786;2022-12-07T14:34:41;1.80;99.90
33803;DHT22;20110;53.120;5.786;2022-12-07T14:37:09;1.70;99.90
33803;DHT22;20110;53.120;5.786;2022-12-07T14:39:36;1.70;99.90
33803;DHT22;20110;53.120;5.786;2022-12-07T14:42:01;1.70;99.90
33803;DHT22;20110;53.120;5.786;2022-12-07T14:44:27;1.60;99.90
33803;DHT22;20110;53.120;5.786;2022-12-07T14:46:54;1.50;99.90
33803;DHT22;20110;53.120;5.786;2022-12-07T14:49:19;1.50;99.90
33803;DHT22;20110;53.120;5.786;2022-12-07T14:51:46;1.40;99.90
33803;DHT22;20110;53.120;5.786;2022-12-07T14:54:18;1.40;99.90
33803;DHT22;20110;53.120;5.786;2022-12-07T14:56:46;1.30;99.90
33803;DHT22;20110;53.120;5.786;2022-12-07T14:59:16;1.30;99.90
33803;DHT22;20110;53.120;5.786;2022-12-07T15:01:42;1.20;99.90
33803;DHT22;20110;53.120;5.786;2022-12-07T15:04:08;1.20;99.90
33803;DHT22;20110;53.120;5.786;2022-12-07T15:06:34;1.20;99.90
33803;DHT22;20110;53.120;5.786;2022-12-07T15:09:00;1.30;99.90
33803;DHT22;20110;53.120;5.786;2022-12-07T15:11:26;1.30;99.90
33803;DHT22;20110;53.120;5.786;2022-12-07T15:13:52;1.30;99.90
33803;DHT22;20110;53.120;5.786;2022-12-07T15:16:35;1.40;99.90
33803;DHT22;20110;53.120;5.786;2022-12-07T15:19:01;1.60;99.90
33803;DHT22;20110;53.120;5.786;2022-12-07T15:21:28;1.80;99.90
33803;DHT22;20110;53.120;5.786;2022-12-07T15:23:54;2.00;99.90
33803;DHT22;20110;53.120;5.786;2022-12-07T15:26:20;2.00;99.90
33803;DHT22;20110;53.120;5.786;2022-12-07T15:28:46;2.10;99.90
33803;DHT22;20110;53.120;5.786;2022-12-07T15:31:16;2.20;99.90
33803;DHT22;20110;53.120;5.786;2022-12-07T15:33:43;2.20;99.90
33803;DHT22;20110;53.120;5.786;2022-12-07T15:36:22;2.20;99.90
33803;DHT22;20110;53.120;5.786;2022-12-07T15:38:50;2.10;99.90
33803;DHT22;20110;53.120;5.786;2022-12-07T15:41:16;2.10;99.90
33803;DHT22;20110;53.120;5.786;2022-12-07T15:43:43;2.10;99.90
33803;DHT22;20110;53.120;5.786;2022-12-07T15:46:36;2.00;99.90
33803;DHT22;20110;53.120;5.786;2022-12-07T15:49:07;2.00;99.90
33803;DHT22;20110;53.120;5.786;2022-12-07T15:51:38;2.00;99.90
33803;DHT22;20110;53.120;5.786;2022-12-07T15:54:05;1.80;99.90
33803;DHT22;20110;53.120;5.786;2022-12-07T15:56:31;1.70;99.90
33803;DHT22;20110;53.120;5.786;2022-12-07T15:58:57;1.70;99.90
33803;DHT22;20110;53.120;5.786;2022-12-07T16:01:23;1.60;99.90
33803;DHT22;20110;53.120;5.786;2022-12-07T16:03:48;1.50;99.90
33803;DHT22;20110;53.120;5.786;2022-12-07T16:06:18;1.50;99.90
33803;DHT22;20110;53.120;5.786;2022-12-07T16:08:45;1.40;99.90
33803;DHT22;20110;53.120;5.786;2022-12-07T16:11:12;1.30;99.90
33803;DHT22;20110;53.120;5.786;2022-12-07T16:13:39;1.40;99.90
33803;DHT22;20110;53.120;5.786;2022-12-07T16:16:11;1.30;99.90
33803;DHT22;20110;53.120;5.786;2022-12-07T16:18:39;1.30;99.90
33803;DHT22;20110;53.120;5.786;2022-12-07T16:21:05;1.30;99.90
33803;DHT22;20110;53.120;5.786;2022-12-07T16:23:32;1.40;99.90
33803;DHT22;20110;53.120;5.786;2022-12-07T16:26:11;1.30;99.90
33803;DHT22;20110;53.120;5.786;2022-12-07T16:28:43;1.30;99.90
33803;DHT22;20110;53.120;5.786;2022-12-07T16:31:12;1.30;99.90
33803;DHT22;20110;53.120;5.786;2022-12-07T16:33:40;1.30;99.90
33803;DHT22;20110;53.120;5.786;2022-12-07T16:36:08;1.20;99.90
33803;DHT22;20110;53.120;5.786;2022-12-07T16:38:37;1.30;99.90
33803;DHT22;20110;53.120;5.786;2022-12-07T16:41:04;1.30;99.90
33803;DHT22;20110;53.120;5.786;2022-12-07T16:43:31;1.20;99.90
33803;DHT22;20110;53.120;5.786;2022-12-07T16:45:56;1.10;99.90
33803;DHT22;20110;53.120;5.786;2022-12-07T16:48:22;1.10;99.90
33803;DHT22;20110;53.120;5.786;2022-12-07T16:50:48;1.10;99.90
33803;DHT22;20110;53.120;5.786;2022-12-07T16:53:15;1.10;99.90
33803;DHT22;20110;53.120;5.786;2022-12-07T16:55:44;1.10;99.90
33803;DHT22;20110;53.120;5.786;2022-12-07T16:58:14;1.00;99.90
33803;DHT22;20110;53.120;5.786;2022-12-07T17:00:41;1.00;99.90
33803;DHT22;20110;53.120;5.786;2022-12-07T17:03:08;1.10;99.90
33803;DHT22;20110;53.120;5.786;2022-12-07T17:05:38;1.10;99.90
33803;DHT22;20110;53.120;5.786;2022-12-07T17:08:05;1.10;99.90
33803;DHT22;20110;53.120;5.786;2022-12-07T17:10:34;1.10;99.90
33803;DHT22;20110;53.120;5.786;2022-12-07T17:13:02;1.30;99.90
33803;DHT22;20110;53.120;5.786;2022-12-07T17:16:03;1.40;99.90
33803;DHT22;20110;53.120;5.786;2022-12-07T17:18:33;1.50;99.90
33803;DHT22;20110;53.120;5.786;2022-12-07T17:21:07;1.60;99.90
33803;DHT22;20110;53.120;5.786;2022-12-07T17:23:36;1.60;99.90
33803;DHT22;20110;53.120;5.786;2022-12-07T17:26:09;1.70;99.90
33803;DHT22;20110;53.120;5.786;2022-12-07T17:28:36;1.70;99.90
33803;DHT22;20110;53.120;5.786;2022-12-07T17:31:07;1.80;99.90
33803;DHT22;20110;53.120;5.786;2022-12-07T17:33:36;1.80;99.90
33803;DHT22;20110;53.120;5.786;2022-12-07T17:36:13;1.70;99.90
33803;DHT22;20110;53.120;5.786;2022-12-07T17:38:41;1.60;99.90
33803;DHT22;20110;53.120;5.786;2022-12-07T17:41:18;1.60;99.90
33803;DHT22;20110;53.120;5.786;2022-12-07T17:44:07;1.60;99.90
33803;DHT22;20110;53.120;5.786;2022-12-07T17:46:35;1.50;99.90
33803;DHT22;20110;53.120;5.786;2022-12-07T17:49:03;1.40;99.90
33803;DHT22;20110;53.120;5.786;2022-12-07T17:51:31;1.30;99.90
33803;DHT22;20110;53.120;5.786;2022-12-07T17:54:16;1.20;99.90
33803;DHT22;20110;53.120;5.786;2022-12-07T17:56:43;0.70;99.90
33803;DHT22;20110;53.120;5.786;2022-12-07T17:59:10;1.20;99.90
33803;DHT22;20110;53.120;5.786;2022-12-07T18:01:37;0.90;99.90
33803;DHT22;20110;53.120;5.786;2022-12-07T18:04:04;0.60;99.90
33803;DHT22;20110;53.120;5.786;2022-12-07T18:06:31;-0.20;99.90
33803;DHT22;20110;53.120;5.786;2022-12-07T18:08:58;-0.60;99.90